Time;durP1;ratioP1;P1;durP2;ratioP2;P2;SDS_P1;SDS_P2;PMS_P1;PMS_P2;Temp;Humidity;BMP_temperature;BMP_pressure;BME280_temperature;BME280_humidity;BME280_pressure;Samples;Min_cycle;Max_cycle;Signal;HPM_P1;HPM_P2
2021/09/06 00:00:11;;;;;;;25.10;7.70;;;;;;;9.96;100.00;77143.66;5022014;28;20022;-67
2021/09/06 00:02:37;;;;;;;27.03;7.57;;;;;;;9.99;100.00;77480.50;5021876;28;20125;-67
2021/09/06 00:05:05;;;;;;;32.30;8.00;;;;;;;9.96;100.00;75484.19;5021989;28;20048;-67
2021/09/06 00:07:31;;;;;;;27.60;7.43;;;;;;;9.99;100.00;75156.19;5022115;28;20026;-67
2021/09/06 00:10:18;;;;;;;28.33;7.87;;;;;;;10.01;100.00;76485.53;5021690;28;20033;-67
2021/09/06 00:12:43;;;;;;;32.90;8.23;;;;;;;9.98;100.00;75818.81;5021708;28;20242;-67
2021/09/06 00:15:09;;;;;;;28.40;8.50;;;;;;;9.98;100.00;74159.25;5021447;28;20517;-67
2021/09/06 00:17:35;;;;;;;26.00;7.23;;;;;;;9.93;100.00;72161.91;5021901;28;20026;-67
2021/09/06 00:20:00;;;;;;;24.00;7.70;;;;;;;9.83;100.00;67180.25;5021690;28;20543;-67
2021/09/06 00:22:26;;;;;;;29.27;8.67;;;;;;;9.86;100.00;67183.19;5021672;28;20449;-67
2021/09/06 00:24:51;;;;;;;24.97;7.03;;;;;;;9.90;100.00;69838.38;5021707;28;20234;-67
2021/09/06 00:27:17;;;;;;;32.77;7.90;;;;;;;9.83;100.00;69498.53;5021487;28;20049;-67
2021/09/06 00:29:42;;;;;;;22.57;7.40;;;;;;;9.81;100.00;69496.09;5021577;28;20040;-67
2021/09/06 00:32:08;;;;;;;27.40;7.77;;;;;;;9.71;100.00;69814.56;5021757;28;20489;-67
2021/09/06 00:34:33;;;;;;;26.67;7.77;;;;;;;9.62;100.00;69473.56;5021586;28;20076;-67
2021/09/06 00:36:59;;;;;;;30.07;7.57;;;;;;;9.65;100.00;69807.81;5021197;28;20045;-67
2021/09/06 00:39:24;;;;;;;27.20;7.70;;;;;;;9.68;100.00;70805.97;5021105;28;20172;-67
2021/09/06 00:41:50;;;;;;;33.27;8.40;;;;;;;9.69;100.00;69812.69;5021823;28;20025;-67
2021/09/06 00:44:15;;;;;;;31.83;7.70;;;;;;;9.61;100.00;67485.28;5021052;28;20286;-67
2021/09/06 00:46:45;;;;;;;25.23;8.10;;;;;;;9.55;100.00;64831.63;5021236;28;20017;-67
2021/09/06 00:49:10;;;;;;;27.13;8.07;;;;;;;9.55;100.00;62187.66;5021267;28;20048;-67
2021/09/06 00:51:36;;;;;;;27.80;8.50;;;;;;;9.53;100.00;62846.41;5021131;28;20025;-67
2021/09/06 00:54:01;;;;;;;32.77;9.20;;;;;;;9.50;100.00;63834.09;5021299;28;20034;-67
2021/09/06 00:56:27;;;;;;;31.73;9.00;;;;;;;9.56;100.00;66155.78;5021185;28;20049;-67
2021/09/06 00:58:53;;;;;;;33.87;8.30;;;;;;;9.58;100.00;69468.09;5020982;28;20031;-67
2021/09/06 01:01:18;;;;;;;29.37;8.50;;;;;;;9.52;100.00;70123.72;5020432;28;20055;-68
2021/09/06 01:03:44;;;;;;;35.27;8.33;;;;;;;9.50;100.00;70120.66;5069159;22;20063;-66
2021/09/06 01:06:09;;;;;;;36.47;9.30;;;;;;;9.51;100.00;70784.91;5060824;28;20028;-68
2021/09/06 01:08:35;;;;;;;35.37;8.63;;;;;;;9.49;100.00;71113.09;5060760;28;20037;-69
2021/09/06 01:11:00;;;;;;;32.83;8.53;;;;;;;9.54;100.00;72776.81;5060310;28;20036;-68
2021/09/06 01:13:26;;;;;;;30.40;7.70;;;;;;;9.50;100.00;72771.09;5060690;28;20055;-69
2021/09/06 01:15:51;;;;;;;26.30;8.40;;;;;;;9.45;100.00;71770.63;5060336;28;20028;-69
2021/09/06 01:18:18;;;;;;;28.63;8.03;;;;;;;9.39;100.00;72095.66;5060820;28;20449;-69
2021/09/06 01:20:43;;;;;;;33.83;8.30;;;;;;;9.33;100.00;70762.63;5059986;28;20514;-69
2021/09/06 01:23:10;;;;;;;34.57;9.50;;;;;;;9.31;100.00;71422.47;5060311;28;20029;-69
2021/09/06 01:25:35;;;;;;;30.17;8.13;;;;;;;9.24;100.00;73070.59;5060012;28;20227;-69
2021/09/06 01:28:01;;;;;;;24.33;7.20;;;;;;;9.13;100.00;70076.44;5060059;28;20039;-69
2021/09/06 01:30:27;;;;;;;26.40;7.70;;;;;;;9.10;100.00;66434.16;5059885;28;20029;-69
2021/09/06 01:32:53;;;;;;;25.53;7.30;;;;;;;9.07;100.00;62465.88;5060171;28;20386;-68
2021/09/06 01:35:18;;;;;;;32.40;8.00;;;;;;;9.07;100.00;62796.13;5059563;28;20028;-68
2021/09/06 01:37:44;;;;;;;38.87;8.80;;;;;;;9.12;100.00;67097.78;5059965;28;20043;-69
2021/09/06 01:40:10;;;;;;;31.93;8.80;;;;;;;9.09;100.00;71065.19;5059413;28;20285;-69
2021/09/06 01:42:35;;;;;;;31.50;8.47;;;;;;;9.04;100.00;72383.28;5060022;28;20051;-69
2021/09/06 01:45:02;;;;;;;31.97;8.23;;;;;;;8.97;100.00;72704.94;5059617;28;20025;-69
2021/09/06 01:47:28;;;;;;;32.33;8.73;;;;;;;8.94;100.00;71377.47;5059986;28;20029;-68
2021/09/06 01:49:53;;;;;;;29.37;8.60;;;;;;;8.99;100.00;70390.19;5059393;28;20029;-68
2021/09/06 01:52:19;;;;;;;35.60;9.13;;;;;;;9.04;100.00;70066.00;5059647;28;20027;-69
2021/09/06 01:54:44;;;;;;;35.90;8.50;;;;;;;9.08;100.00;72056.56;5059341;28;20039;-69
2021/09/06 01:57:10;;;;;;;36.87;8.63;;;;;;;9.00;100.00;70391.41;5059587;28;20380;-69
2021/09/06 01:59:35;;;;;;;28.23;8.13;;;;;;;9.04;100.00;70065.41;5059138;28;20032;-69
2021/09/06 02:02:01;;;;;;;27.80;7.67;;;;;;;8.93;100.00;65423.53;5055321;28;20283;-69
2021/09/06 02:04:26;;;;;;;30.83;7.60;;;;;;;8.98;100.00;64768.44;5038865;28;20493;-68
2021/09/06 02:06:52;;;;;;;30.50;7.90;;;;;;;8.96;100.00;62784.50;5038650;28;20450;-68
2021/09/06 02:09:21;;;;;;;25.63;7.80;;;;;;;8.89;100.00;60460.91;5038522;28;20109;-68
2021/09/06 02:11:49;;;;;;;26.43;6.97;;;;;;;8.76;100.00;56595.25;5038710;28;20745;-69
2021/09/06 02:14:15;;;;;;;29.83;8.10;;;;;;;8.77;100.00;55386.66;5039064;28;20520;-72
2021/09/06 02:16:40;;;;;;;33.57;8.13;;;;;;;8.89;100.00;59363.09;5038534;28;20032;-72
2021/09/06 02:19:06;;;;;;;32.87;8.33;;;;;;;8.89;100.00;62116.03;5038533;28;20036;-72
2021/09/06 02:21:31;;;;;;;32.30;8.27;;;;;;;8.94;100.00;65424.66;5038589;28;20108;-72
2021/09/06 02:24:01;;;;;;;36.67;8.57;;;;;;;8.95;100.00;66416.66;5038271;28;20036;-73
2021/09/06 02:26:27;;;;;;;35.33;8.70;;;;;;;8.99;100.00;67744.38;5038678;28;20424;-72
2021/09/06 02:28:52;;;;;;;36.93;8.50;;;;;;;9.04;100.00;69403.63;5038682;28;20284;-72
2021/09/06 02:31:18;;;;;;;33.70;9.27;;;;;;;8.94;100.00;69722.28;5038492;28;20033;-72
2021/09/06 02:33:43;;;;;;;41.10;8.67;;;;;;;8.98;100.00;68073.28;5038746;28;20698;-72
2021/09/06 02:36:09;;;;;;;38.73;9.57;;;;;;;9.04;100.00;68080.44;5038181;28;20044;-72
2021/09/06 02:38:34;;;;;;;30.53;8.17;;;;;;;8.96;100.00;68070.88;5038548;28;20048;-73
2021/09/06 02:41:00;;;;;;;31.80;7.40;;;;;;;8.84;100.00;66073.41;5038491;28;20037;-72
2021/09/06 02:43:25;;;;;;;33.67;8.17;;;;;;;8.77;100.00;66066.44;5038667;28;20033;-72
2021/09/06 02:45:51;;;;;;;30.03;8.60;;;;;;;8.79;100.00;68382.41;5038365;28;20456;-72
2021/09/06 02:48:16;;;;;;;31.17;8.83;;;;;;;8.72;100.00;67381.78;5039137;28;20609;-71
2021/09/06 02:50:42;;;;;;;35.13;8.93;;;;;;;8.76;100.00;68709.44;5038189;28;20063;-71
2021/09/06 02:53:07;;;;;;;36.67;9.57;;;;;;;8.89;100.00;72363.66;5039717;28;20071;-71
2021/09/06 02:55:33;;;;;;;34.70;9.80;;;;;;;8.81;100.00;72023.16;5041577;28;20064;-71
2021/09/06 02:57:58;;;;;;;37.97;9.57;;;;;;;8.77;100.00;71687.16;5041806;28;20027;-71
2021/09/06 03:00:25;;;;;;;31.23;8.03;;;;;;;8.69;100.00;70354.44;5041340;28;20090;-71
2021/09/06 03:02:51;;;;;;;35.10;8.70;;;;;;;8.60;100.00;69681.97;5000712;28;1195761;-71
2021/09/06 03:05:17;;;;;;;30.93;8.40;;;;;;;8.59;100.00;69019.50;5042816;28;20033;-71
2021/09/06 03:07:42;;;;;;;30.53;8.13;;;;;;;8.60;100.00;68690.16;5043026;28;20244;-71
2021/09/06 03:10:08;;;;;;;26.37;7.37;;;;;;;8.48;100.00;65703.19;5042817;28;20532;-71
2021/09/06 03:12:34;;;;;;;25.07;7.30;;;;;;;8.41;100.00;62065.19;5042749;28;20051;-71
2021/09/06 03:14:59;;;;;;;26.87;7.00;;;;;;;8.33;100.00;59748.28;5042510;28;20170;-71
2021/09/06 03:17:25;;;;;;;25.73;7.10;;;;;;;8.25;100.00;55721.84;5042813;28;20424;-71
2021/09/06 03:19:50;;;;;;;39.53;9.10;;;;;;;8.33;100.00;56406.09;5042334;28;20430;-71
2021/09/06 03:22:17;;;;;;;32.93;9.00;;;;;;;8.42;100.00;60654.00;5043025;28;20436;-71
2021/09/06 03:24:43;;;;;;;41.17;9.20;;;;;;;8.49;100.00;65043.41;5042303;28;20021;-71
2021/09/06 03:27:09;;;;;;;35.60;9.23;;;;;;;8.46;100.00;67021.28;5042574;28;20040;-71
2021/09/06 03:29:34;;;;;;;39.43;9.10;;;;;;;8.45;100.00;66359.56;5042533;28;20036;-71
2021/09/06 03:32:00;;;;;;;35.90;9.10;;;;;;;8.63;100.00;71008.56;5042610;28;20037;-71
2021/09/06 03:34:25;;;;;;;39.87;9.47;;;;;;;8.59;100.00;71664.56;5042021;28;20040;-71
2021/09/06 03:36:51;;;;;;;45.30;10.07;;;;;;;8.63;100.00;73324.94;5042415;28;20032;-71
2021/09/06 03:39:18;;;;;;;44.07;10.00;;;;;;;8.62;100.00;73985.09;5041907;28;20504;-72
2021/09/06 03:41:44;;;;;;;46.73;10.17;;;;;;;8.62;100.00;73323.66;5042475;28;20035;-71
2021/09/06 03:44:09;;;;;;;39.27;9.73;;;;;;;8.57;100.00;72324.41;5041963;28;20029;-71
2021/09/06 03:46:35;;;;;;;46.67;9.50;;;;;;;8.58;100.00;72325.69;5041984;28;20504;-71
2021/09/06 03:49:00;;;;;;;41.63;9.87;;;;;;;8.57;100.00;73317.22;5041801;28;20025;-71
2021/09/06 03:51:26;;;;;;;28.13;7.97;;;;;;;8.33;100.00;66346.13;5042092;28;20501;-71
2021/09/06 03:53:51;;;;;;;27.00;7.70;;;;;;;8.17;100.00;58296.56;5042194;28;20036;-71
2021/09/06 03:56:17;;;;;;;28.50;7.93;;;;;;;8.06;100.00;53144.44;5041553;28;20412;-71
2021/09/06 03:58:42;;;;;;;27.97;7.33;;;;;;;7.97;100.00;50266.09;5041753;28;20021;-71
2021/09/06 04:01:08;;;;;;;32.03;8.37;;;;;;;7.97;100.00;53675.28;5041692;28;20099;-71
2021/09/06 04:03:33;;;;;;;34.33;7.80;;;;;;;8.04;100.00;60943.41;5041053;28;20596;-71
2021/09/06 04:05:59;;;;;;;38.83;9.23;;;;;;;8.18;100.00;66989.50;5041620;28;20543;-71
2021/09/06 04:08:25;;;;;;;46.17;9.23;;;;;;;8.33;100.00;72294.63;5041697;28;20052;-71
2021/09/06 04:10:52;;;;;;;41.73;9.27;;;;;;;8.25;100.00;72284.53;5041504;28;20135;-71
2021/09/06 04:13:17;;;;;;;36.43;9.83;;;;;;;8.22;100.00;69306.31;5041466;28;20035;-71
2021/09/06 04:15:45;;;;;;;33.73;8.93;;;;;;;8.21;100.00;66332.16;5041327;28;20024;-71
2021/09/06 04:18:10;;;;;;;32.67;8.67;;;;;;;8.20;100.00;65671.41;5041438;28;20039;-71
2021/09/06 04:20:36;;;;;;;35.67;9.80;;;;;;;8.23;100.00;67325.59;5041256;28;20028;-71
2021/09/06 04:23:01;;;;;;;31.17;8.97;;;;;;;8.25;100.00;68978.97;5041382;28;20025;-71
2021/09/06 04:25:27;;;;;;;32.00;9.30;;;;;;;8.25;100.00;70300.19;5041272;28;20072;-71
2021/09/06 04:27:52;;;;;;;39.87;12.10;;;;;;;8.27;100.00;71294.41;5041384;28;20059;-71
2021/09/06 04:30:18;;;;;;;29.93;9.43;;;;;;;8.28;100.00;71295.66;5041155;28;20039;-71
2021/09/06 04:32:43;;;;;;;34.53;9.87;;;;;;;8.22;100.00;70628.25;5041205;28;20047;-71
2021/09/06 04:35:09;;;;;;;31.83;8.20;;;;;;;7.98;100.00;62348.31;5040917;28;20033;-71
2021/09/06 04:37:35;;;;;;;26.07;7.93;;;;;;;7.86;100.00;54276.06;5041023;28;20024;-71
2021/09/06 04:40:02;;;;;;;29.20;8.93;;;;;;;7.90;100.00;55302.38;5040474;28;20033;-71
2021/09/06 04:42:27;;;;;;;31.10;9.13;;;;;;;8.14;100.00;63684.41;5040897;28;20489;-71
2021/09/06 04:44:53;;;;;;;40.53;9.43;;;;;;;8.23;100.00;68315.81;5040796;28;20079;-71
2021/09/06 04:47:20;;;;;;;36.00;9.33;;;;;;;8.27;100.00;70963.78;5040993;28;20407;-71
2021/09/06 04:49:45;;;;;;;33.30;9.67;;;;;;;8.28;100.00;70303.88;5040609;28;20082;-71
2021/09/06 04:52:12;;;;;;;30.33;9.67;;;;;;;8.29;100.00;70305.72;5040928;28;20104;-71
2021/09/06 04:54:37;;;;;;;30.37;8.47;;;;;;;8.29;100.00;67001.88;5040679;28;20177;-71
2021/09/06 04:57:03;;;;;;;27.30;8.20;;;;;;;8.16;100.00;62038.41;5040537;28;20021;-71
2021/09/06 04:59:28;;;;;;;20.00;6.53;;;;;;;7.99;100.00;53708.00;5040561;28;20105;-70
2021/09/06 05:01:54;;;;;;;18.10;6.30;;;;;;;7.86;100.00;47696.94;5040666;28;20427;-71
2021/09/06 05:04:20;;;;;;;14.17;6.20;;;;;;;7.86;100.00;48204.53;5040497;28;20548;-71
2021/09/06 05:06:45;;;;;;;20.90;7.53;;;;;;;7.92;100.00;52412.31;5040684;28;20378;-71
2021/09/06 05:09:11;;;;;;;21.73;6.83;;;;;;;8.08;100.00;58906.78;5040290;28;20067;-71
2021/09/06 05:11:36;;;;;;;30.60;8.33;;;;;;;8.33;100.00;67336.25;5040445;28;20381;-71
2021/09/06 05:14:02;;;;;;;28.10;8.23;;;;;;;8.48;100.00;69998.53;5040141;28;20191;-71
2021/09/06 05:16:27;;;;;;;24.90;8.43;;;;;;;8.64;100.00;70348.28;5039504;28;20165;-71
2021/09/06 05:18:53;;;;;;;25.07;8.17;;;;;;;8.76;100.00;69040.09;5040374;28;20036;-70
2021/09/06 05:21:19;;;;;;;25.47;7.90;;;;;;;8.73;100.00;61029.91;5040034;28;20074;-71
2021/09/06 05:23:44;;;;;;;21.10;7.30;;;;;;;8.71;100.00;53071.13;5040163;28;20024;-71
2021/09/06 05:26:10;;;;;;;19.20;6.70;;;;;;;8.71;100.00;45263.97;5039864;28;20020;-71
2021/09/06 05:28:35;;;;;;;19.63;6.83;;;;;;;8.84;100.00;44365.56;5040270;28;20593;-71
2021/09/06 05:31:03;;;;;;;17.90;5.93;;;;;;;8.79;100.00;40880.78;5039835;28;20473;-71
2021/09/06 05:33:31;;;;;;;18.60;5.93;;;;;;;8.81;100.00;39878.00;5039907;28;20039;-71
2021/09/06 05:35:57;;;;;;;13.27;5.33;;;;;;;8.80;100.00;37998.06;5039378;28;20033;-71
2021/09/06 05:38:22;;;;;;;14.07;5.43;;;;;;;8.81;100.00;37906.59;5039980;28;20029;-71
2021/09/06 05:40:48;;;;;;;12.50;5.73;;;;;;;8.86;100.00;37356.41;5039754;28;20028;-71
2021/09/06 05:43:14;;;;;;;13.00;5.53;;;;;;;8.95;100.00;38968.09;5039956;28;20049;-71
2021/09/06 05:45:39;;;;;;;15.57;5.70;;;;;;;9.12;100.00;40553.56;5039743;28;20594;-71
2021/09/06 05:48:05;;;;;;;11.47;5.03;;;;;;;9.47;100.00;42233.09;5039737;28;20196;-71
2021/09/06 05:50:31;;;;;;;12.53;5.23;;;;;;;9.90;100.00;37954.50;5039340;28;20020;-71
2021/09/06 05:52:56;;;;;;;11.77;5.30;;;;;;;10.20;100.00;21790.16;5039414;28;20151;-70
2021/09/06 05:55:22;;;;;;;12.10;4.70;;;;;;;10.79;100.00;11502.28;5039117;28;20070;-70
2021/09/06 05:57:47;;;;;;;11.63;4.33;;;;;;;10.94;100.00;-8773.81;5039621;28;20370;-70
2021/09/06 06:00:13;;;;;;;9.50;4.90;;;;;;;11.75;100.00;-8357.19;5039475;28;20074;-70
2021/09/06 06:02:39;;;;;;;10.27;4.53;;;;;;;12.53;100.00;-19492.84;5038891;28;20041;-70
2021/09/06 06:05:05;;;;;;;8.93;4.13;;;;;;;13.09;100.00;-19507.28;5039276;28;20420;-70
2021/09/06 06:07:31;;;;;;;7.50;3.20;;;;;;;13.94;100.00;-19529.31;5039156;28;20021;-70
2021/09/06 06:09:59;;;;;;;8.00;3.10;;;;;;;15.12;100.00;-19559.69;5039093;28;20199;-68
2021/09/06 06:12:31;;;;;;;7.60;3.50;;;;;;;15.64;100.00;-19572.91;5039444;28;20262;-68
2021/09/06 06:14:57;;;;;;;8.50;3.25;;;;;;;16.12;100.00;-19585.34;5039065;28;20224;-67
2021/09/06 06:17:23;;;;;;;5.77;2.53;;;;;;;16.88;100.00;-19604.94;5039190;28;20544;-67
2021/09/06 06:19:50;;;;;;;6.87;3.30;;;;;;;16.68;100.00;-19599.72;5038820;28;20045;-70
2021/09/06 06:22:16;;;;;;;7.60;3.40;;;;;;;16.98;100.00;-19607.56;5039417;28;20324;-67
2021/09/06 06:24:41;;;;;;;7.70;3.43;;;;;;;17.26;100.00;-19614.59;5038932;28;20029;-67
2021/09/06 06:27:07;;;;;;;10.70;3.50;;;;;;;16.69;100.00;-19599.97;5038956;28;20021;-67
2021/09/06 06:29:32;;;;;;;7.43;3.17;;;;;;;16.94;100.00;-19606.38;5038977;28;20033;-67
2021/09/06 06:31:58;;;;;;;7.18;2.88;;;;;;;17.18;100.00;-19612.50;5039393;28;20033;-67
2021/09/06 06:34:23;;;;;;;7.25;3.28;;;;;;;18.10;100.00;-19636.13;5038930;28;20060;-67
2021/09/06 06:36:49;;;;;;;8.63;3.67;;;;;;;19.21;100.00;-19664.53;5038902;28;20033;-68
2021/09/06 06:39:15;;;;;;;8.48;3.47;;;;;;;19.59;100.00;-19674.28;5038975;28;20037;-67
2021/09/06 06:41:41;;;;;;;7.05;3.10;;;;;;;19.42;100.00;-19669.88;5039142;28;20029;-67
2021/09/06 06:44:07;;;;;;;8.38;3.38;;;;;;;19.21;100.00;-19664.66;5038686;28;20051;-68
2021/09/06 06:46:33;;;;;;;11.48;3.78;;;;;;;19.89;100.00;-19682.09;5038657;28;20044;-68
2021/09/06 06:48:58;;;;;;;8.75;4.20;;;;;;;20.12;100.00;-19687.81;5038926;28;20142;-68
2021/09/06 06:51:24;;;;;;;9.88;4.30;;;;;;;20.15;100.00;-19688.72;5038839;28;20063;-68
2021/09/06 06:53:49;;;;;;;8.93;4.32;;;;;;;19.98;100.00;-19684.19;5039257;28;20120;-68
2021/09/06 06:56:15;;;;;;;9.57;4.57;;;;;;;19.80;100.00;-19679.75;5038738;28;20033;-68
2021/09/06 06:58:40;;;;;;;9.77;4.97;;;;;;;20.20;100.00;-19690.03;5038871;28;20219;-68
2021/09/06 07:01:06;;;;;;;9.82;4.68;;;;;;;19.74;100.00;-19678.19;5038302;28;20048;-68
2021/09/06 07:03:31;;;;;;;9.85;4.43;;;;;;;19.50;100.00;-19672.06;5038506;28;20127;-67
2021/09/06 07:05:57;;;;;;;14.45;4.50;;;;;;;19.59;100.00;-19674.28;5038340;28;20032;-67
2021/09/06 07:08:23;;;;;;;9.95;4.63;;;;;;;19.56;100.00;-19673.50;5038743;28;20040;-68
2021/09/06 07:10:48;;;;;;;11.30;5.00;;;;;;;19.53;100.00;-19672.84;5038754;28;20067;-68
2021/09/06 07:13:14;;;;;;;10.95;4.88;;;;;;;19.69;100.00;-19676.91;5038686;28;20116;-68
2021/09/06 07:15:40;;;;;;;8.80;4.38;;;;;;;20.27;100.00;-19691.72;5038252;28;20039;-68
2021/09/06 07:18:07;;;;;;;11.75;4.90;;;;;;;20.22;100.00;-19690.41;5038695;28;20086;-69
2021/09/06 07:20:34;;;;;;;12.90;5.07;;;;;;;20.25;100.00;-19691.22;5038362;28;20111;-68
2021/09/06 07:22:59;;;;;;;13.02;5.30;;;;;;;20.83;100.00;-19706.03;5038663;28;20119;-69
2021/09/06 07:25:25;;;;;;;10.88;4.88;;;;;;;20.59;100.00;-19699.91;5038378;28;20680;-68
2021/09/06 07:27:50;;;;;;;11.88;4.93;;;;;;;21.54;100.00;-19724.19;5038497;28;20021;-68
2021/09/06 07:30:16;;;;;;;11.95;5.15;;;;;;;21.88;100.00;-19732.75;5038278;28;20639;-68
2021/09/06 07:32:41;;;;;;;13.13;5.30;;;;;;;22.48;100.00;-19748.06;5038268;28;20057;-68
2021/09/06 07:35:07;;;;;;;14.88;6.32;;;;;;;22.06;100.00;-19737.31;5038301;28;20310;-68
2021/09/06 07:37:33;;;;;;;14.05;6.03;;;;;;;21.57;100.00;-19724.97;5038601;28;20106;-68
2021/09/06 07:39:58;;;;;;;13.32;6.10;;;;;;;22.00;100.00;-19735.88;5040982;28;20032;-68
2021/09/06 07:42:24;;;;;;;12.95;6.43;;;;;;;22.09;100.00;-19738.09;5042400;28;20386;-68
2021/09/06 07:44:50;;;;;;;15.98;6.78;;;;;;;22.09;100.00;-19738.22;5042081;28;20250;-68
2021/09/06 07:47:15;;;;;;;18.70;6.82;;;;;;;22.52;100.00;-19749.22;5042011;28;20430;-68
2021/09/06 07:49:42;;;;;;;15.85;6.85;;;;;;;22.52;100.00;-19749.22;5041684;28;20067;-68
2021/09/06 07:52:08;;;;;;;13.60;6.35;;;;;;;20.27;100.00;-19691.72;5042016;28;20029;-68
2021/09/06 07:54:34;;;;;;;24.90;8.05;;;;;;;19.28;100.00;-19666.47;5041395;28;20037;-68
2021/09/06 07:57:00;;;;;;;13.15;6.63;;;;;;;18.97;100.00;-19658.41;5042271;28;20428;-68
2021/09/06 07:59:25;;;;;;;13.52;6.40;;;;;;;19.46;100.00;-19670.91;5041849;28;20547;-68
2021/09/06 08:01:51;;;;;;;13.10;6.35;;;;;;;20.83;100.00;-19705.88;5041700;28;20029;-68
2021/09/06 08:04:16;;;;;;;14.80;5.78;;;;;;;21.48;100.00;-19722.53;5041717;28;20452;-68
2021/09/06 08:06:44;;;;;;;13.75;6.30;;;;;;;21.43;100.00;-19721.34;5042024;28;20039;-68
2021/09/06 08:09:09;;;;;;;17.95;6.78;;;;;;;24.17;100.00;-19791.06;5041564;28;20029;-68
2021/09/06 08:11:35;;;;;;;16.27;6.90;;;;;;;25.11;83.74;-19815.09;5041742;28;20083;-68
2021/09/06 08:14:00;;;;;;;13.73;5.57;;;;;;;23.89;91.34;-19783.94;5041317;28;20029;-69
2021/09/06 08:16:26;;;;;;;12.73;6.15;;;;;;;22.95;100.00;-19760.00;5041583;28;20329;-69
2021/09/06 08:18:52;;;;;;;13.25;6.55;;;;;;;23.18;100.00;-19765.81;5041524;28;20183;-69
2021/09/06 08:21:18;;;;;;;14.70;5.85;;;;;;;22.84;100.00;-19757.16;5041315;28;20029;-68
2021/09/06 08:23:44;;;;;;;12.85;6.35;;;;;;;23.09;100.00;-19763.63;5041536;28;20021;-68
2021/09/06 08:26:09;;;;;;;14.80;6.38;;;;;;;23.90;100.00;-19784.34;5041074;28;20485;-68
2021/09/06 08:28:35;;;;;;;13.75;6.47;;;;;;;22.07;100.00;-19737.69;5041082;28;20021;-68
2021/09/06 08:31:01;;;;;;;14.10;6.53;;;;;;;22.39;100.00;-19745.72;5040974;28;20033;-68
2021/09/06 08:33:27;;;;;;;13.60;6.88;;;;;;;21.61;100.00;-19726.03;5041294;28;20465;-68
2021/09/06 08:35:52;;;;;;;13.63;6.50;;;;;;;21.91;100.00;-19733.66;5040743;28;20594;-69
2021/09/06 08:38:18;;;;;;;14.27;6.25;;;;;;;22.02;100.00;-19736.41;5041235;28;20196;-68
2021/09/06 08:40:44;;;;;;;14.15;6.65;;;;;;;22.94;100.00;-19759.75;5041138;28;20052;-68
2021/09/06 08:43:10;;;;;;;14.68;6.47;;;;;;;24.23;87.93;-19792.75;5041108;28;20044;-68
2021/09/06 08:45:36;;;;;;;13.65;6.68;;;;;;;23.60;99.47;-19776.56;5040891;28;20025;-68
2021/09/06 08:48:03;;;;;;;14.10;6.57;;;;;;;24.46;83.67;-19798.56;5041095;28;20023;-69
2021/09/06 08:50:29;;;;;;;12.25;5.93;;;;;;;24.13;90.09;-19790.03;5039438;28;20120;-69
2021/09/06 08:52:55;;;;;;;12.60;6.70;;;;;;;23.54;100.00;-19775.13;5040842;28;20377;-70
2021/09/06 08:55:21;;;;;;;13.40;6.55;;;;;;;21.51;100.00;-19723.28;5040520;28;20033;-69
2021/09/06 08:57:47;;;;;;;12.57;6.53;;;;;;;20.74;100.00;-19703.69;5040795;28;20029;-69
2021/09/06 09:00:13;;;;;;;14.88;7.10;;;;;;;20.31;100.00;-19692.63;5040744;28;20567;-69
2021/09/06 09:02:42;;;;;;;14.25;6.68;;;;;;;20.91;100.00;-19708.09;5040578;28;20413;-69
2021/09/06 09:05:10;;;;;;;13.50;6.80;;;;;;;22.19;100.00;-19740.81;5040355;28;20386;-69
2021/09/06 09:07:37;;;;;;;14.00;7.15;;;;;;;22.96;100.00;-19760.38;5040805;28;20117;-69
2021/09/06 09:10:04;;;;;;;15.73;7.40;;;;;;;24.42;97.06;-19797.53;5040084;28;20108;-69
2021/09/06 09:12:30;;;;;;;12.98;6.18;;;;;;;25.12;88.11;-19815.34;5040378;28;20104;-69
2021/09/06 09:15:00;;;;;;;14.63;7.05;;;;;;;25.77;75.23;-19831.63;5040330;28;20298;-69
2021/09/06 09:17:26;;;;;;;14.23;6.10;;;;;;;26.09;74.17;-19839.88;5040160;28;20093;-69
2021/09/06 09:19:53;;;;;;;15.40;6.57;;;;;;;25.30;75.36;-19819.75;5039989;28;20025;-69
2021/09/06 09:22:33;;;;;;;11.90;6.10;;;;;;;25.73;81.60;-19830.59;5040378;28;20082;-69
2021/09/06 09:25:05;;;;;;;13.50;6.55;;;;;;;27.03;72.06;-19863.72;5039893;28;20374;-69
2021/09/06 09:27:36;;;;;;;17.27;7.00;;;;;;;27.86;63.00;-19884.69;5040218;28;20035;-69
2021/09/06 09:30:04;;;;;;;12.40;6.10;;;;;;;25.98;71.44;-19837.03;5040040;28;20033;-69
2021/09/06 09:32:37;;;;;;;14.45;6.30;;;;;;;24.03;78.38;-19787.44;5039903;28;20021;-69
2021/09/06 09:35:05;;;;;;;16.55;6.85;;;;;;;24.26;96.02;-19793.50;5039788;28;20425;-69
2021/09/06 09:37:32;;;;;;;12.90;6.45;;;;;;;25.60;83.46;-19827.50;5039935;28;20036;-69
2021/09/06 09:39:59;;;;;;;11.95;5.40;;;;;;;25.85;74.85;-19833.81;5039624;28;20102;-70
2021/09/06 09:42:25;;;;;;;10.27;4.88;;;;;;;27.38;63.80;-19872.47;5039538;28;20032;-70
2021/09/06 09:44:54;;;;;;;10.20;4.72;;;;;;;26.43;62.50;-19848.38;5039615;28;20025;-70
2021/09/06 09:47:21;;;;;;;9.05;4.32;;;;;;;25.95;71.73;-19836.25;5040208;28;20060;-70
2021/09/06 09:49:51;;;;;;;10.30;3.90;;;;;;;26.99;67.76;-19862.56;5039686;28;20024;-69
2021/09/06 09:52:22;;;;;;;7.43;3.33;;;;;;;27.17;62.37;-19867.06;5039933;28;20029;-69
2021/09/06 09:54:52;;;;;;;8.98;3.70;;;;;;;27.44;62.87;-19874.16;5039411;28;20186;-69
2021/09/06 09:57:18;;;;;;;7.40;3.17;;;;;;;26.45;60.13;-19848.91;5039720;28;20102;-70
2021/09/06 09:59:44;;;;;;;7.78;3.50;;;;;;;26.11;72.85;-19840.25;5039732;28;20185;-69
2021/09/06 10:02:15;;;;;;;11.93;3.35;;;;;;;26.59;67.48;-19852.50;5039107;28;20073;-69
2021/09/06 10:04:50;;;;;;;8.45;3.53;;;;;;;26.35;63.31;-19846.44;5039461;28;20600;-69
2021/09/06 10:07:17;;;;;;;7.15;3.13;;;;;;;26.01;71.57;-19837.81;5039552;28;20021;-69
2021/09/06 10:09:44;;;;;;;8.85;3.72;;;;;;;25.11;70.51;-19815.09;5039452;28;20591;-69
2021/09/06 10:12:19;;;;;;;7.28;3.33;;;;;;;24.64;66.09;-19803.09;5039368;28;20025;-70
2021/09/06 10:14:56;;;;;;;6.85;2.80;;;;;;;25.47;68.42;-19824.00;5039080;28;20174;-69
2021/09/06 10:17:35;;;;;;;7.20;3.25;;;;;;;24.33;66.73;-19795.19;5039430;28;20712;-69
2021/09/06 10:20:16;;;;;;;6.72;3.10;;;;;;;25.79;63.78;-19832.13;5039191;28;20178;-69
2021/09/06 10:22:43;;;;;;;8.05;3.63;;;;;;;25.57;63.37;-19826.72;5039442;28;20219;-70
2021/09/06 10:25:16;;;;;;;6.65;3.15;;;;;;;24.90;63.63;-19809.66;5039342;28;20086;-71
2021/09/06 10:28:02;;;;;;;8.27;3.58;;;;;;;23.99;67.97;-19786.53;5039260;28;20400;-70
2021/09/06 10:30:40;;;;;;;7.32;3.40;;;;;;;23.60;70.32;-19776.56;5038743;28;20067;-70
2021/09/06 10:33:08;;;;;;;7.78;3.33;;;;;;;23.76;70.63;-19780.72;5039045;28;20028;-70
2021/09/06 10:35:35;;;;;;;7.70;3.30;;;;;;;24.21;67.76;-19792.22;5039030;28;20029;-70
2021/09/06 10:38:04;;;;;;;7.35;3.33;;;;;;;24.78;63.96;-19806.69;5039125;28;20287;-70
2021/09/06 10:40:39;;;;;;;7.25;3.30;;;;;;;24.18;63.93;-19791.31;5038593;28;20036;-70
2021/09/06 10:43:40;;;;;;;9.38;3.63;;;;;;;24.21;67.84;-19792.09;5039322;28;20036;-69
2021/09/06 10:46:06;;;;;;;7.93;3.50;;;;;;;24.78;70.90;-19806.56;4955102;28;20522;-69
2021/09/06 10:48:35;;;;;;;7.57;3.35;;;;;;;24.88;67.72;-19809.16;4957476;28;20288;-70
2021/09/06 10:51:02;;;;;;;7.88;3.20;;;;;;;24.63;71.10;-19802.81;4948233;28;20054;-70
2021/09/06 10:53:28;;;;;;;5.97;3.38;;;;;;;24.36;73.13;-19795.97;4938303;29;20484;-69
2021/09/06 10:55:57;;;;;;;9.35;3.63;;;;;;;23.94;78.28;-19785.38;4953386;28;20030;-70
2021/09/06 10:58:25;;;;;;;7.88;3.78;;;;;;;23.56;80.17;-19775.53;4957389;28;20027;-69
2021/09/06 11:00:56;;;;;;;7.85;3.92;;;;;;;23.06;88.26;-19762.97;4957244;28;20197;-70
2021/09/06 11:03:30;;;;;;;9.73;4.00;;;;;;;22.73;91.52;-19754.53;4957022;28;20047;-69
2021/09/06 11:05:58;;;;;;;8.27;3.75;;;;;;;22.99;93.20;-19761.03;4957121;28;20492;-69
2021/09/06 11:08:32;;;;;;;10.00;3.33;;;;;;;22.29;100.00;-19743.16;4957126;28;20204;-69
2021/09/06 11:11:00;;;;;;;8.60;3.85;;;;;;;21.84;98.31;-19731.72;4956976;28;20050;-69
2021/09/06 11:13:36;;;;;;;7.30;3.40;;;;;;;21.82;95.07;-19731.34;4957477;28;20026;-69
2021/09/06 11:16:07;;;;;;;9.30;3.78;;;;;;;21.45;94.58;-19721.88;4960715;28;20053;-69
2021/09/06 11:18:38;;;;;;;7.55;3.67;;;;;;;21.77;100.00;-19729.91;4961218;28;20030;-69